createdAt,value
2022-07-27T00:00:48.060Z,95.11
2022-07-27T00:03:14.863Z,92.46
2022-07-27T00:05:41.902Z,90.71
2022-07-27T00:08:08.690Z,91.66
2022-07-27T00:10:36.719Z,93.70
2022-07-27T00:13:04.762Z,93.37
2022-07-27T00:15:31.441Z,92.17
2022-07-27T00:18:00.877Z,91.63
2022-07-27T00:20:28.631Z,92.99
2022-07-27T00:22:55.739Z,93.79
2022-07-27T00:25:23.130Z,93.32
2022-07-27T00:27:49.824Z,93.18
2022-07-27T00:30:18.266Z,93.00
2022-07-27T00:32:44.974Z,93.66
2022-07-27T00:35:11.969Z,95.11
2022-07-27T00:37:40.194Z,96.28
2022-07-27T00:40:08.003Z,94.23
2022-07-27T00:42:35.411Z,94.08
2022-07-27T00:45:02.962Z,92.02
2022-07-27T00:47:29.839Z,92.44
2022-07-27T00:49:57.362Z,92.97
2022-07-27T00:52:24.714Z,92.98
2022-07-27T00:54:52.154Z,93.63
2022-07-27T00:57:19.366Z,92.77
2022-07-27T00:59:46.056Z,93.72
2022-07-27T01:02:12.854Z,92.71
2022-07-27T01:04:46.676Z,94.21
2022-07-27T01:07:14.331Z,95.75
2022-07-27T01:09:59.909Z,94.55
2022-07-27T01:12:31.589Z,93.80
2022-07-27T01:14:59.685Z,93.53
2022-07-27T01:17:30.605Z,93.11
2022-07-27T01:19:58.719Z,93.79
2022-07-27T01:22:25.837Z,93.46
2022-07-27T01:24:52.589Z,92.88
2022-07-27T01:27:19.212Z,92.20
2022-07-27T01:29:45.970Z,92.23
2022-07-27T01:32:12.693Z,92.44
2022-07-27T01:34:39.539Z,92.32
2022-07-27T01:37:06.277Z,92.06
2022-07-27T01:39:34.113Z,93.12
2022-07-27T01:42:02.037Z,92.35
2022-07-27T01:44:28.930Z,93.19
2022-07-27T01:46:55.651Z,94.15
2022-07-27T01:49:22.469Z,95.57
2022-07-27T01:51:49.452Z,93.77
2022-07-27T01:54:16.133Z,93.24
2022-07-27T01:56:42.776Z,92.11
2022-07-27T01:59:16.154Z,93.27
2022-07-27T02:01:43.570Z,95.12
2022-07-27T02:04:10.278Z,96.53
2022-07-27T02:06:36.936Z,96.10
2022-07-27T02:09:03.703Z,94.48
2022-07-27T02:11:49.027Z,93.67
2022-07-27T02:14:16.515Z,94.19
2022-07-27T02:16:43.533Z,94.36
2022-07-27T02:19:11.132Z,93.46
2022-07-27T02:21:38.828Z,92.21
2022-07-27T02:24:06.095Z,93.88
2022-07-27T02:26:32.804Z,94.74
2022-07-27T02:28:59.443Z,95.30
2022-07-27T02:31:26.184Z,94.64
2022-07-27T02:33:59.495Z,95.64
2022-07-27T02:36:29.081Z,95.32
2022-07-27T02:38:56.113Z,93.44
2022-07-27T02:41:22.945Z,93.68
2022-07-27T02:43:49.581Z,94.40
2022-07-27T02:46:16.655Z,94.93
2022-07-27T02:48:43.474Z,96.74
2022-07-27T02:51:10.122Z,94.82
2022-07-27T02:53:36.806Z,95.22
2022-07-27T02:56:03.491Z,96.16
2022-07-27T02:58:30.163Z,97.65
2022-07-27T03:00:58.722Z,95.95
2022-07-27T03:03:33.251Z,95.87
2022-07-27T03:06:05.839Z,97.18
2022-07-27T03:08:32.484Z,99.52
2022-07-27T03:10:59.520Z,99.71
2022-07-27T03:13:26.693Z,98.83
2022-07-27T03:15:53.482Z,98.17
2022-07-27T03:18:20.522Z,98.02
2022-07-27T03:20:47.219Z,99.05
2022-07-27T03:23:13.886Z,99.53
2022-07-27T03:25:40.581Z,100.00
2022-07-27T03:28:07.269Z,100.00
2022-07-27T03:30:33.975Z,100.00
2022-07-27T03:33:00.664Z,97.99
2022-07-27T03:35:27.549Z,95.70
2022-07-27T03:37:54.244Z,96.96
2022-07-27T03:40:20.940Z,96.35
2022-07-27T03:42:47.543Z,96.74
2022-07-27T03:45:14.308Z,97.69
2022-07-27T03:47:41.004Z,97.87
2022-07-27T03:50:08.104Z,97.35
2022-07-27T03:52:34.731Z,97.50
2022-07-27T03:55:01.363Z,96.98
2022-07-27T03:57:29.856Z,98.02
2022-07-27T03:59:56.507Z,97.51
2022-07-27T04:02:23.234Z,95.02
2022-07-27T04:04:49.987Z,94.48
2022-07-27T04:07:16.621Z,96.88
2022-07-27T04:09:43.307Z,97.19
2022-07-27T04:12:12.802Z,98.33
2022-07-27T04:14:39.511Z,98.20
2022-07-27T04:17:06.233Z,100.00
2022-07-27T04:19:33.053Z,100.00
2022-07-27T04:21:59.733Z,99.46
2022-07-27T04:24:26.401Z,96.17
2022-07-27T04:26:53.051Z,94.09
2022-07-27T04:29:20.698Z,92.58
2022-07-27T04:31:48.290Z,93.05
2022-07-27T04:34:14.939Z,92.55
2022-07-27T04:36:41.587Z,92.53
2022-07-27T04:39:08.489Z,92.46
2022-07-27T04:41:35.238Z,93.38
2022-07-27T04:44:01.865Z,94.61
2022-07-27T04:46:29.795Z,93.49
2022-07-27T04:48:56.839Z,92.50
2022-07-27T04:51:23.799Z,91.55
2022-07-27T04:53:57.593Z,93.38
2022-07-27T04:56:26.358Z,94.97
2022-07-27T04:58:53.383Z,93.76
2022-07-27T05:01:20.170Z,92.97
2022-07-27T05:03:47.045Z,93.82
2022-07-27T05:06:13.831Z,94.24
2022-07-27T05:08:40.702Z,94.10
2022-07-27T05:11:07.343Z,94.28
2022-07-27T05:13:36.141Z,93.32
2022-07-27T05:16:02.821Z,92.28
2022-07-27T05:18:29.529Z,92.10
2022-07-27T05:20:56.187Z,91.38
2022-07-27T05:23:22.779Z,91.10
2022-07-27T05:25:49.498Z,90.90
2022-07-27T05:28:16.182Z,91.06
2022-07-27T05:30:42.968Z,90.85
2022-07-27T05:33:09.667Z,91.08
2022-07-27T05:35:37.097Z,90.81
2022-07-27T05:38:04.287Z,93.12
2022-07-27T05:40:31.309Z,94.04
2022-07-27T05:42:58.228Z,94.37
2022-07-27T05:45:26.272Z,94.16
2022-07-27T05:47:54.411Z,94.81
2022-07-27T05:50:21.452Z,93.05
2022-07-27T05:52:48.325Z,93.05
2022-07-27T05:55:16.271Z,91.30
2022-07-27T05:57:43.707Z,92.29
2022-07-27T06:00:11.757Z,92.16
2022-07-27T06:02:38.839Z,93.29
2022-07-27T06:05:05.887Z,91.47
2022-07-27T06:07:50.975Z,88.72
2022-07-27T06:10:18.147Z,91.09
2022-07-27T06:12:46.206Z,90.35
2022-07-27T06:15:13.932Z,92.14
2022-07-27T06:17:40.943Z,92.36
2022-07-27T06:20:09.259Z,88.40
2022-07-27T06:22:52.958Z,86.02
2022-07-27T06:25:20.360Z,88.25
2022-07-27T06:27:47.956Z,89.34
2022-07-27T06:30:17.568Z,89.52
2022-07-27T06:32:44.968Z,89.48
2022-07-27T06:35:14.666Z,91.45
2022-07-27T06:37:44.047Z,89.35
2022-07-27T06:40:13.254Z,87.96
2022-07-27T06:42:41.409Z,86.99
2022-07-27T06:45:09.263Z,84.28
2022-07-27T06:47:36.450Z,84.18
2022-07-27T06:50:16.258Z,81.40
2022-07-27T06:52:43.615Z,84.08
2022-07-27T06:55:10.295Z,85.13
2022-07-27T06:57:36.940Z,83.66
2022-07-27T07:00:05.235Z,84.82
2022-07-27T07:02:32.530Z,83.55
2022-07-27T07:04:59.231Z,81.26
2022-07-27T07:07:25.984Z,79.88
2022-07-27T07:09:52.588Z,76.45
2022-07-27T07:12:19.293Z,76.97
2022-07-27T07:14:46.186Z,76.07
2022-07-27T07:17:13.493Z,76.67
2022-07-27T07:19:40.183Z,78.46
2022-07-27T07:22:06.826Z,76.61
2022-07-27T07:24:33.547Z,72.10
2022-07-27T07:27:00.214Z,69.27
2022-07-27T07:29:26.941Z,72.35
2022-07-27T07:31:53.880Z,68.59
2022-07-27T07:34:20.832Z,70.41
2022-07-27T07:36:47.969Z,69.29
2022-07-27T07:39:15.073Z,69.44
2022-07-27T07:41:42.043Z,65.62
2022-07-27T07:44:10.081Z,66.07
2022-07-27T07:46:37.047Z,65.32
2022-07-27T07:49:05.059Z,63.48
2022-07-27T07:51:32.199Z,61.75
2022-07-27T07:53:59.244Z,59.61
2022-07-27T07:56:26.037Z,60.10
2022-07-27T07:58:52.709Z,57.81
2022-07-27T08:01:19.403Z,58.09
2022-07-27T08:03:50.604Z,56.59
2022-07-27T08:06:17.834Z,56.40
2022-07-27T08:08:44.522Z,57.30
2022-07-27T08:11:11.218Z,56.70
2022-07-27T08:13:38.430Z,57.36
2022-07-27T08:16:05.666Z,57.06
2022-07-27T08:18:32.412Z,56.14
2022-07-27T08:20:59.326Z,56.38
2022-07-27T08:23:29.311Z,58.41
2022-07-27T08:25:55.932Z,57.25
2022-07-27T08:28:22.736Z,57.20
2022-07-27T08:30:49.602Z,58.37
2022-07-27T08:33:16.914Z,59.16
2022-07-27T08:35:45.032Z,57.03
2022-07-27T08:38:12.366Z,55.90
2022-07-27T08:40:42.827Z,57.77
2022-07-27T08:43:11.724Z,58.78
2022-07-27T08:45:39.176Z,60.57
2022-07-27T08:48:06.275Z,59.61
2022-07-27T08:50:35.234Z,60.90
2022-07-27T08:53:08.490Z,60.89
2022-07-27T08:55:38.108Z,59.97
2022-07-27T08:58:05.589Z,58.96
2022-07-27T09:00:34.011Z,60.17
2022-07-27T09:03:01.195Z,61.00
2022-07-27T09:05:36.214Z,60.99
2022-07-27T09:08:21.721Z,60.04
2022-07-27T09:10:48.748Z,60.08
2022-07-27T09:13:22.901Z,60.32
2022-07-27T09:16:16.713Z,60.34
2022-07-27T09:18:39.900Z,58.80
2022-07-27T09:21:17.006Z,59.04
2022-07-27T09:23:48.060Z,59.55
2022-07-27T09:26:31.741Z,60.14
2022-07-27T09:29:11.282Z,58.97
2022-07-27T09:31:42.738Z,60.75
2022-07-27T09:34:10.273Z,58.17
2022-07-27T09:36:52.784Z,57.54
2022-07-27T09:39:24.525Z,57.18
2022-07-27T09:42:03.293Z,54.28
2022-07-27T09:44:42.145Z,53.64
2022-07-27T09:47:31.094Z,52.96
2022-07-27T09:50:19.511Z,52.81
2022-07-27T09:52:47.291Z,51.69
2022-07-27T09:55:14.307Z,53.34
2022-07-27T09:57:58.702Z,54.81
2022-07-27T10:00:27.059Z,55.56
2022-07-27T10:02:55.082Z,55.74
2022-07-27T10:05:22.869Z,56.13
2022-07-27T10:07:51.773Z,54.74
2022-07-27T10:10:18.975Z,53.35
2022-07-27T10:12:50.540Z,53.46
2022-07-27T10:15:20.868Z,55.34
2022-07-27T10:17:51.572Z,53.75
2022-07-27T10:20:18.844Z,54.74
2022-07-27T10:22:58.534Z,53.14
2022-07-27T10:25:27.136Z,54.88
2022-07-27T10:28:19.304Z,53.14
2022-07-27T10:30:48.272Z,55.31
2022-07-27T10:33:43.698Z,53.31
2022-07-27T10:36:37.016Z,49.06
2022-07-27T10:39:06.765Z,50.95
2022-07-27T10:41:41.693Z,48.90
2022-07-27T10:44:15.094Z,49.44
2022-07-27T10:46:45.791Z,51.30
2022-07-27T10:49:19.728Z,52.03
2022-07-27T10:51:46.511Z,50.24
2022-07-27T10:54:25.810Z,52.19
2022-07-27T10:56:56.971Z,52.80
2022-07-27T11:00:08.512Z,54.89
2022-07-27T11:02:42.289Z,56.68
2022-07-27T11:05:37.926Z,57.37
2022-07-27T11:08:36.022Z,57.11
2022-07-27T11:10:48.212Z,55.86
2022-07-27T11:13:17.969Z,55.22
2022-07-27T11:16:00.074Z,58.75
2022-07-27T11:18:43.805Z,54.55
2022-07-27T11:21:26.149Z,55.49
2022-07-27T11:23:57.588Z,58.77
2022-07-27T11:26:29.789Z,59.07
2022-07-27T11:28:56.927Z,57.51
2022-07-27T11:31:45.126Z,59.47
2022-07-27T11:34:11.751Z,59.74
2022-07-27T11:36:50.234Z,59.46
2022-07-27T11:39:54.290Z,58.26
2022-07-27T11:42:12.025Z,56.99
2022-07-27T11:44:42.241Z,55.87
2022-07-27T11:47:09.156Z,55.85
2022-07-27T11:49:35.930Z,55.41
2022-07-27T11:52:05.925Z,55.93
2022-07-27T11:54:33.744Z,55.11
2022-07-27T11:57:12.412Z,54.59
2022-07-27T11:59:44.419Z,55.31
2022-07-27T12:02:18.346Z,54.21
2022-07-27T12:04:50.168Z,55.92
2022-07-27T12:07:23.283Z,52.60
2022-07-27T12:09:55.675Z,53.45
2022-07-27T12:12:24.268Z,52.92
2022-07-27T12:14:54.445Z,51.51
2022-07-27T12:17:38.299Z,52.16
2022-07-27T12:20:08.084Z,50.68
2022-07-27T12:22:37.726Z,48.98
2022-07-27T12:25:29.505Z,49.63
2022-07-27T12:27:57.875Z,51.72
2022-07-27T12:30:39.160Z,50.08
2022-07-27T12:33:24.205Z,51.79
2022-07-27T12:35:51.109Z,52.31
2022-07-27T12:38:18.673Z,52.08
2022-07-27T12:40:48.528Z,50.45
2022-07-27T12:43:21.204Z,51.98
2022-07-27T12:45:50.844Z,52.55
2022-07-27T12:48:17.494Z,51.79
2022-07-27T12:50:46.827Z,51.90
2022-07-27T12:53:16.298Z,52.33
2022-07-27T12:55:44.379Z,51.55
2022-07-27T12:58:14.239Z,53.00
2022-07-27T13:00:41.516Z,52.03
2022-07-27T13:03:08.655Z,52.30
2022-07-27T13:05:35.863Z,52.38
2022-07-27T13:08:04.713Z,53.00
2022-07-27T13:10:32.250Z,51.49
2022-07-27T13:12:59.233Z,51.34
2022-07-27T13:15:26.733Z,51.21
2022-07-27T13:17:53.417Z,50.62
2022-07-27T13:20:20.320Z,52.35
2022-07-27T13:22:47.195Z,51.25
2022-07-27T13:25:15.549Z,51.66
2022-07-27T13:27:44.972Z,50.87
2022-07-27T13:30:13.527Z,52.11
2022-07-27T13:32:41.375Z,50.92
2022-07-27T13:35:09.932Z,49.64
2022-07-27T13:37:36.760Z,50.01
2022-07-27T13:40:04.798Z,49.48
2022-07-27T13:42:31.698Z,49.17
2022-07-27T13:45:08.522Z,48.29
2022-07-27T13:47:36.942Z,47.58
2022-07-27T13:50:04.738Z,47.75
2022-07-27T13:52:31.451Z,49.52
2022-07-27T13:54:58.147Z,50.18
2022-07-27T13:57:24.778Z,50.76
2022-07-27T13:59:51.566Z,53.07
2022-07-27T14:02:20.504Z,53.27
2022-07-27T14:04:49.958Z,53.81
2022-07-27T14:07:17.084Z,54.06
2022-07-27T14:10:02.792Z,52.96
2022-07-27T14:12:29.683Z,52.77
2022-07-27T14:14:56.348Z,51.83
2022-07-27T14:17:23.272Z,53.46
2022-07-27T14:19:49.955Z,53.22
2022-07-27T14:22:16.652Z,52.75
2022-07-27T14:24:43.335Z,58.04
2022-07-27T14:27:09.972Z,59.78
2022-07-27T14:29:36.639Z,57.89
2022-07-27T14:32:03.535Z,54.37
2022-07-27T14:34:30.201Z,56.20
2022-07-27T14:36:56.904Z,56.28
2022-07-27T14:39:23.542Z,56.42
2022-07-27T14:41:50.215Z,55.56
2022-07-27T14:44:18.744Z,56.39
2022-07-27T14:46:46.580Z,53.19
2022-07-27T14:49:17.129Z,55.72
2022-07-27T14:51:43.975Z,54.53
2022-07-27T14:54:10.733Z,54.84
2022-07-27T14:56:37.452Z,55.33
2022-07-27T14:59:04.734Z,55.11
2022-07-27T15:01:31.845Z,55.49
2022-07-27T15:03:58.673Z,57.95
2022-07-27T15:06:25.494Z,56.88
2022-07-27T15:08:52.210Z,57.67
2022-07-27T15:11:18.845Z,58.78
2022-07-27T15:13:45.459Z,60.62
2022-07-27T15:16:12.358Z,58.74
2022-07-27T15:18:39.270Z,57.33
2022-07-27T15:21:12.669Z,57.00
2022-07-27T15:23:42.135Z,59.03
2022-07-27T15:26:08.853Z,61.36
2022-07-27T15:28:36.372Z,58.83
2022-07-27T15:31:03.720Z,58.72
2022-07-27T15:33:30.730Z,58.58
2022-07-27T15:35:57.416Z,60.31
2022-07-27T15:38:24.122Z,60.37
2022-07-27T15:40:51.029Z,64.10
2022-07-27T15:43:19.045Z,64.07
2022-07-27T15:45:48.886Z,62.70
2022-07-27T15:48:17.444Z,64.91
2022-07-27T15:50:50.871Z,64.08
2022-07-27T15:53:18.862Z,62.22
2022-07-27T15:55:46.098Z,62.73
2022-07-27T15:58:13.939Z,63.86
2022-07-27T16:00:41.668Z,64.22
2022-07-27T16:03:12.838Z,62.85
2022-07-27T16:05:43.131Z,64.37
2022-07-27T16:08:10.423Z,64.58
2022-07-27T16:10:38.579Z,64.63
2022-07-27T16:13:06.626Z,65.28
2022-07-27T16:15:52.461Z,65.91
2022-07-27T16:18:19.323Z,65.47
2022-07-27T16:20:46.135Z,65.11
2022-07-27T16:23:18.108Z,65.00
2022-07-27T16:26:03.762Z,67.78
2022-07-27T16:28:32.559Z,68.27
2022-07-27T16:30:59.286Z,70.01
2022-07-27T16:33:26.231Z,74.21
2022-07-27T16:35:52.960Z,75.13
2022-07-27T16:38:19.595Z,75.10
2022-07-27T16:40:46.977Z,77.18
2022-07-27T16:43:13.724Z,79.79
2022-07-27T16:45:40.406Z,82.02
2022-07-27T16:48:07.931Z,83.52
2022-07-27T16:50:34.948Z,84.26
2022-07-27T16:53:01.606Z,86.19
2022-07-27T16:55:28.473Z,86.22
2022-07-27T16:57:56.036Z,86.91
2022-07-27T17:00:23.062Z,86.14
2022-07-27T17:02:50.088Z,86.08
2022-07-27T17:05:16.829Z,87.04
2022-07-27T17:07:43.672Z,86.01
2022-07-27T17:10:10.296Z,86.30
2022-07-27T17:12:38.536Z,86.42
2022-07-27T17:15:07.056Z,88.87
2022-07-27T17:17:34.153Z,89.24
2022-07-27T17:20:00.884Z,87.52
2022-07-27T17:22:27.581Z,89.30
2022-07-27T17:24:54.281Z,89.40
2022-07-27T17:27:22.063Z,88.14
2022-07-27T17:29:49.218Z,86.84
2022-07-27T17:32:15.836Z,87.42
2022-07-27T17:34:43.471Z,88.31
2022-07-27T17:37:10.180Z,87.55
2022-07-27T17:39:36.935Z,88.20
2022-07-27T17:42:04.427Z,88.55
2022-07-27T17:44:32.309Z,89.96
2022-07-27T17:47:01.043Z,89.57
2022-07-27T17:49:28.191Z,87.14
2022-07-27T17:51:55.067Z,89.07
2022-07-27T17:54:23.771Z,90.35
2022-07-27T17:56:50.433Z,89.57
2022-07-27T17:59:38.854Z,87.28
2022-07-27T18:02:04.953Z,88.24
2022-07-27T18:04:37.025Z,92.33
2022-07-27T18:07:05.718Z,91.45
2022-07-27T18:09:32.424Z,90.26
2022-07-27T18:11:59.639Z,87.57
2022-07-27T18:14:26.397Z,90.89
2022-07-27T18:16:53.088Z,93.40
2022-07-27T18:19:19.752Z,89.42
2022-07-27T18:21:46.431Z,86.37
2022-07-27T18:24:13.105Z,90.17
2022-07-27T18:26:40.118Z,89.14
2022-07-27T18:29:07.708Z,86.24
2022-07-27T18:31:34.849Z,86.09
2022-07-27T18:34:02.977Z,87.53
2022-07-27T18:36:29.824Z,87.45
2022-07-27T18:38:57.743Z,86.96
2022-07-27T18:41:24.919Z,86.07
2022-07-27T18:43:51.600Z,86.11
2022-07-27T18:46:22.818Z,85.31
2022-07-27T18:48:50.421Z,86.15
2022-07-27T18:51:17.282Z,88.48
2022-07-27T18:53:44.235Z,87.82
2022-07-27T18:56:10.867Z,87.49
2022-07-27T18:58:37.645Z,87.12
2022-07-27T19:01:04.396Z,87.75
2022-07-27T19:03:31.439Z,86.55
2022-07-27T19:05:59.028Z,86.05
2022-07-27T19:08:25.730Z,84.85
2022-07-27T19:10:53.037Z,86.14
2022-07-27T19:13:19.782Z,85.87
2022-07-27T19:15:46.435Z,86.54
2022-07-27T19:18:13.139Z,85.64
2022-07-27T19:20:39.860Z,86.75
2022-07-27T19:23:07.220Z,84.38
2022-07-27T19:25:34.345Z,83.97
2022-07-27T19:28:01.537Z,84.59
2022-07-27T19:30:28.356Z,86.60
2022-07-27T19:32:55.133Z,87.09
2022-07-27T19:35:21.845Z,88.43
2022-07-27T19:37:48.552Z,90.45
2022-07-27T19:40:42.838Z,90.52
2022-07-27T19:43:06.450Z,90.17
2022-07-27T19:45:33.825Z,91.27
2022-07-27T19:48:04.770Z,91.67
2022-07-27T19:50:31.401Z,91.52
2022-07-27T19:52:58.346Z,91.38
2022-07-27T19:55:25.180Z,89.86
2022-07-27T19:57:51.866Z,89.99
2022-07-27T20:00:18.605Z,89.02
2022-07-27T20:02:45.369Z,89.25
2022-07-27T20:05:12.044Z,90.24
2022-07-27T20:07:38.669Z,87.71
2022-07-27T20:10:06.589Z,89.44
2022-07-27T20:12:33.260Z,89.93
2022-07-27T20:15:00.466Z,91.12
2022-07-27T20:17:27.438Z,90.45
2022-07-27T20:19:54.239Z,91.76
2022-07-27T20:22:20.887Z,91.88
2022-07-27T20:24:47.765Z,91.19
2022-07-27T20:27:14.665Z,90.16
2022-07-27T20:29:41.333Z,89.52
2022-07-27T20:32:07.932Z,89.98
2022-07-27T20:34:34.591Z,91.99
2022-07-27T20:37:01.237Z,86.33
2022-07-27T20:39:27.842Z,88.00
2022-07-27T20:41:54.601Z,89.06
2022-07-27T20:44:21.367Z,87.97
2022-07-27T20:46:48.353Z,90.14
2022-07-27T20:49:16.360Z,87.18
2022-07-27T20:51:43.682Z,81.20
2022-07-27T20:54:10.883Z,81.99
2022-07-27T20:56:37.930Z,81.94
2022-07-27T20:59:07.636Z,80.99
2022-07-27T21:01:35.745Z,80.51
2022-07-27T21:04:02.444Z,80.64
2022-07-27T21:06:29.107Z,82.65
2022-07-27T21:08:55.781Z,81.14
2022-07-27T21:11:22.438Z,80.45
2022-07-27T21:13:49.018Z,80.41
2022-07-27T21:16:15.725Z,80.41
2022-07-27T21:18:42.401Z,79.61
2022-07-27T21:21:09.078Z,78.60
2022-07-27T21:23:54.226Z,78.99
2022-07-27T21:26:20.928Z,77.85
2022-07-27T21:28:49.720Z,78.34
2022-07-27T21:31:16.348Z,79.38
2022-07-27T21:33:43.093Z,79.69
2022-07-27T21:36:09.842Z,81.61
2022-07-27T21:38:36.428Z,82.62
2022-07-27T21:41:04.027Z,82.78
2022-07-27T21:43:32.060Z,82.81
2022-07-27T21:45:58.742Z,82.89
2022-07-27T21:48:25.428Z,84.91
2022-07-27T21:50:52.256Z,86.26
2022-07-27T21:53:19.317Z,87.28
2022-07-27T21:55:46.314Z,85.74
2022-07-27T21:58:13.699Z,87.60
2022-07-27T22:00:40.500Z,88.46
2022-07-27T22:03:08.223Z,88.17
2022-07-27T22:05:35.427Z,90.33
2022-07-27T22:08:02.078Z,89.86
2022-07-27T22:10:30.631Z,91.76
2022-07-27T22:12:58.480Z,92.83
2022-07-27T22:15:25.901Z,92.27
2022-07-27T22:17:53.112Z,92.14
2022-07-27T22:20:21.292Z,92.20
2022-07-27T22:22:49.411Z,91.64
2022-07-27T22:25:17.445Z,92.61
2022-07-27T22:27:44.831Z,93.08
2022-07-27T22:30:11.845Z,92.76
2022-07-27T22:32:38.488Z,92.22
2022-07-27T22:35:05.500Z,92.96
2022-07-27T22:37:32.181Z,94.02
2022-07-27T22:39:59.254Z,93.68
2022-07-27T22:42:25.904Z,94.35
2022-07-27T22:44:52.567Z,94.52
2022-07-27T22:47:19.752Z,94.02
2022-07-27T22:49:46.489Z,94.19
2022-07-27T22:52:13.357Z,94.99
2022-07-27T22:54:39.983Z,95.36
2022-07-27T22:57:07.502Z,96.05
2022-07-27T22:59:34.791Z,94.26
2022-07-27T23:02:02.091Z,93.93
2022-07-27T23:04:28.759Z,94.23
2022-07-27T23:06:55.648Z,94.52
2022-07-27T23:09:23.152Z,95.98
2022-07-27T23:11:50.603Z,96.53
2022-07-27T23:14:17.782Z,97.06
2022-07-27T23:16:45.185Z,96.45
2022-07-27T23:19:11.994Z,96.32
2022-07-27T23:21:39.690Z,98.50
2022-07-27T23:24:11.154Z,100.00
2022-07-27T23:26:38.779Z,99.46
2022-07-27T23:29:05.442Z,99.75
2022-07-27T23:31:32.267Z,98.81
2022-07-27T23:33:59.071Z,100.00
2022-07-27T23:36:26.068Z,99.78
2022-07-27T23:38:52.795Z,98.79
2022-07-27T23:41:19.644Z,99.14
2022-07-27T23:43:46.377Z,99.84
2022-07-27T23:46:13.251Z,99.63
2022-07-27T23:48:40.203Z,99.89
2022-07-27T23:51:08.942Z,100.00
2022-07-27T23:53:35.632Z,98.65
2022-07-27T23:56:02.278Z,98.42
2022-07-27T23:58:29.622Z,99.61
